sensor_id;sensor_type;location;lat;lon;timestamp;P1;durP1;ratioP1;P2;durP2;ratioP2
59127;SDS011;44912;52.754;5.994;2023-02-28T00:02:20;8.63;;;3.40;;
59127;SDS011;44912;52.754;5.994;2023-02-28T00:04:46;8.43;;;3.53;;
59127;SDS011;44912;52.754;5.994;2023-02-28T00:07:25;12.40;;;3.40;;
59127;SDS011;44912;52.754;5.994;2023-02-28T00:09:52;9.45;;;4.30;;
59127;SDS011;44912;52.754;5.994;2023-02-28T00:12:18;9.25;;;3.55;;
59127;SDS011;44912;52.754;5.994;2023-02-28T00:14:43;11.63;;;3.97;;
59127;SDS011;44912;52.754;5.994;2023-02-28T00:17:09;14.02;;;4.22;;
59127;SDS011;44912;52.754;5.994;2023-02-28T00:19:34;11.52;;;4.25;;
59127;SDS011;44912;52.754;5.994;2023-02-28T00:22:00;12.93;;;4.03;;
59127;SDS011;44912;52.754;5.994;2023-02-28T00:24:25;8.68;;;3.42;;
59127;SDS011;44912;52.754;5.994;2023-02-28T00:26:51;11.88;;;3.90;;
59127;SDS011;44912;52.754;5.994;2023-02-28T00:29:16;11.30;;;3.80;;
59127;SDS011;44912;52.754;5.994;2023-02-28T00:31:42;7.97;;;3.08;;
59127;SDS011;44912;52.754;5.994;2023-02-28T00:34:07;10.30;;;3.75;;
59127;SDS011;44912;52.754;5.994;2023-02-28T00:36:33;9.05;;;3.72;;
59127;SDS011;44912;52.754;5.994;2023-02-28T00:38:58;8.95;;;4.03;;
59127;SDS011;44912;52.754;5.994;2023-02-28T00:41:24;7.88;;;3.47;;
59127;SDS011;44912;52.754;5.994;2023-02-28T00:43:49;10.25;;;3.80;;
59127;SDS011;44912;52.754;5.994;2023-02-28T00:46:15;8.93;;;3.50;;
59127;SDS011;44912;52.754;5.994;2023-02-28T00:48:41;8.57;;;3.33;;
59127;SDS011;44912;52.754;5.994;2023-02-28T00:51:06;11.60;;;3.60;;
59127;SDS011;44912;52.754;5.994;2023-02-28T00:53:32;10.57;;;4.10;;
59127;SDS011;44912;52.754;5.994;2023-02-28T00:55:58;9.82;;;3.70;;
59127;SDS011;44912;52.754;5.994;2023-02-28T00:58:23;11.55;;;4.10;;
59127;SDS011;44912;52.754;5.994;2023-02-28T01:00:50;9.73;;;3.75;;
59127;SDS011;44912;52.754;5.994;2023-02-28T01:03:17;11.60;;;3.70;;
59127;SDS011;44912;52.754;5.994;2023-02-28T01:05:45;13.43;;;4.30;;
59127;SDS011;44912;52.754;5.994;2023-02-28T01:08:11;11.80;;;3.53;;
59127;SDS011;44912;52.754;5.994;2023-02-28T01:10:37;9.52;;;3.80;;
59127;SDS011;44912;52.754;5.994;2023-02-28T01:13:03;11.30;;;3.85;;
59127;SDS011;44912;52.754;5.994;2023-02-28T01:15:28;9.82;;;3.60;;
59127;SDS011;44912;52.754;5.994;2023-02-28T01:17:54;11.07;;;3.40;;
59127;SDS011;44912;52.754;5.994;2023-02-28T01:20:20;7.55;;;3.65;;
59127;SDS011;44912;52.754;5.994;2023-02-28T01:22:45;8.90;;;3.25;;
59127;SDS011;44912;52.754;5.994;2023-02-28T01:25:11;9.73;;;3.60;;
59127;SDS011;44912;52.754;5.994;2023-02-28T01:27:37;8.80;;;3.25;;
59127;SDS011;44912;52.754;5.994;2023-02-28T01:30:04;9.25;;;3.50;;
59127;SDS011;44912;52.754;5.994;2023-02-28T01:32:31;11.02;;;3.55;;
59127;SDS011;44912;52.754;5.994;2023-02-28T01:34:57;11.60;;;3.80;;
59127;SDS011;44912;52.754;5.994;2023-02-28T01:37:22;7.93;;;3.47;;
59127;SDS011;44912;52.754;5.994;2023-02-28T01:39:48;9.18;;;3.88;;
59127;SDS011;44912;52.754;5.994;2023-02-28T01:42:13;14.23;;;3.92;;
59127;SDS011;44912;52.754;5.994;2023-02-28T01:47:28;8.52;;;3.30;;
59127;SDS011;44912;52.754;5.994;2023-02-28T01:50:06;9.52;;;3.20;;
59127;SDS011;44912;52.754;5.994;2023-02-28T01:52:35;10.80;;;3.30;;
59127;SDS011;44912;52.754;5.994;2023-02-28T01:55:02;10.15;;;3.25;;
59127;SDS011;44912;52.754;5.994;2023-02-28T01:57:35;9.23;;;3.67;;
59127;SDS011;44912;52.754;5.994;2023-02-28T02:00:07;9.60;;;3.83;;
59127;SDS011;44912;52.754;5.994;2023-02-28T02:02:35;11.25;;;4.20;;
59127;SDS011;44912;52.754;5.994;2023-02-28T02:05:09;11.27;;;4.00;;
59127;SDS011;44912;52.754;5.994;2023-02-28T02:07:41;13.82;;;4.63;;
59127;SDS011;44912;52.754;5.994;2023-02-28T02:10:14;9.93;;;4.32;;
59127;SDS011;44912;52.754;5.994;2023-02-28T02:15:25;6.97;;;4.05;;
59127;SDS011;44912;52.754;5.994;2023-02-28T02:18:03;8.68;;;4.43;;
59127;SDS011;44912;52.754;5.994;2023-02-28T02:21:06;9.93;;;4.15;;
59127;SDS011;44912;52.754;5.994;2023-02-28T02:23:57;9.35;;;3.88;;
59127;SDS011;44912;52.754;5.994;2023-02-28T02:30:07;9.77;;;4.13;;
59127;SDS011;44912;52.754;5.994;2023-02-28T02:34:40;11.02;;;4.00;;
59127;SDS011;44912;52.754;5.994;2023-02-28T02:39:49;11.30;;;4.00;;
59127;SDS011;44912;52.754;5.994;2023-02-28T02:42:46;7.82;;;4.10;;
59127;SDS011;44912;52.754;5.994;2023-02-28T02:45:31;11.77;;;3.92;;
59127;SDS011;44912;52.754;5.994;2023-02-28T02:48:01;13.20;;;4.47;;
59127;SDS011;44912;52.754;5.994;2023-02-28T02:50:38;10.70;;;4.20;;
59127;SDS011;44912;52.754;5.994;2023-02-28T02:53:11;10.07;;;4.15;;
59127;SDS011;44912;52.754;5.994;2023-02-28T02:55:40;10.68;;;4.70;;
59127;SDS011;44912;52.754;5.994;2023-02-28T02:58:09;11.88;;;4.45;;
59127;SDS011;44912;52.754;5.994;2023-02-28T03:00:42;13.77;;;4.68;;
59127;SDS011;44912;52.754;5.994;2023-02-28T03:03:13;8.93;;;4.03;;
59127;SDS011;44912;52.754;5.994;2023-02-28T03:05:50;10.50;;;4.28;;
59127;SDS011;44912;52.754;5.994;2023-02-28T03:08:16;10.15;;;4.75;;
59127;SDS011;44912;52.754;5.994;2023-02-28T03:10:43;10.77;;;4.28;;
59127;SDS011;44912;52.754;5.994;2023-02-28T03:19:00;9.93;;;3.85;;
59127;SDS011;44912;52.754;5.994;2023-02-28T03:27:05;8.40;;;4.35;;
59127;SDS011;44912;52.754;5.994;2023-02-28T03:29:37;9.13;;;3.83;;
59127;SDS011;44912;52.754;5.994;2023-02-28T03:32:11;12.02;;;4.30;;
59127;SDS011;44912;52.754;5.994;2023-02-28T03:34:57;9.77;;;4.15;;
59127;SDS011;44912;52.754;5.994;2023-02-28T03:37:31;8.48;;;4.32;;
59127;SDS011;44912;52.754;5.994;2023-02-28T03:40:03;10.30;;;4.50;;
59127;SDS011;44912;52.754;5.994;2023-02-28T03:42:34;10.38;;;4.60;;
59127;SDS011;44912;52.754;5.994;2023-02-28T03:45:02;10.48;;;5.28;;
59127;SDS011;44912;52.754;5.994;2023-02-28T03:47:35;11.82;;;5.90;;
59127;SDS011;44912;52.754;5.994;2023-02-28T03:50:14;13.77;;;6.90;;
59127;SDS011;44912;52.754;5.994;2023-02-28T03:52:48;14.40;;;7.47;;
59127;SDS011;44912;52.754;5.994;2023-02-28T03:55:16;14.40;;;9.05;;
59127;SDS011;44912;52.754;5.994;2023-02-28T03:58:00;14.57;;;7.78;;
59127;SDS011;44912;52.754;5.994;2023-02-28T04:00:46;16.05;;;8.60;;
59127;SDS011;44912;52.754;5.994;2023-02-28T04:03:17;15.95;;;8.63;;
59127;SDS011;44912;52.754;5.994;2023-02-28T04:05:52;13.68;;;8.60;;
59127;SDS011;44912;52.754;5.994;2023-02-28T04:08:19;14.48;;;8.60;;
59127;SDS011;44912;52.754;5.994;2023-02-28T04:10:53;15.63;;;8.43;;
59127;SDS011;44912;52.754;5.994;2023-02-28T04:13:24;14.82;;;9.65;;
59127;SDS011;44912;52.754;5.994;2023-02-28T04:15:49;14.85;;;8.55;;
59127;SDS011;44912;52.754;5.994;2023-02-28T04:18:15;16.17;;;9.68;;
59127;SDS011;44912;52.754;5.994;2023-02-28T04:20:40;14.38;;;8.95;;
59127;SDS011;44912;52.754;5.994;2023-02-28T04:23:06;17.92;;;9.23;;
59127;SDS011;44912;52.754;5.994;2023-02-28T04:25:31;18.65;;;9.35;;
59127;SDS011;44912;52.754;5.994;2023-02-28T04:27:57;14.85;;;8.98;;
59127;SDS011;44912;52.754;5.994;2023-02-28T04:30:22;16.48;;;10.00;;
59127;SDS011;44912;52.754;5.994;2023-02-28T04:32:48;20.40;;;10.35;;
59127;SDS011;44912;52.754;5.994;2023-02-28T04:35:13;17.80;;;10.60;;
59127;SDS011;44912;52.754;5.994;2023-02-28T04:37:39;17.63;;;10.75;;
59127;SDS011;44912;52.754;5.994;2023-02-28T04:40:04;17.25;;;10.70;;
59127;SDS011;44912;52.754;5.994;2023-02-28T04:42:30;17.42;;;10.98;;
59127;SDS011;44912;52.754;5.994;2023-02-28T04:45:00;17.38;;;10.35;;
59127;SDS011;44912;52.754;5.994;2023-02-28T04:47:27;17.35;;;11.02;;
59127;SDS011;44912;52.754;5.994;2023-02-28T04:49:53;20.02;;;12.30;;
59127;SDS011;44912;52.754;5.994;2023-02-28T04:52:18;17.05;;;11.85;;
59127;SDS011;44912;52.754;5.994;2023-02-28T04:54:44;20.60;;;12.35;;
59127;SDS011;44912;52.754;5.994;2023-02-28T04:57:10;19.05;;;12.30;;
59127;SDS011;44912;52.754;5.994;2023-02-28T04:59:35;23.42;;;12.95;;
59127;SDS011;44912;52.754;5.994;2023-02-28T05:02:01;20.30;;;13.52;;
59127;SDS011;44912;52.754;5.994;2023-02-28T05:04:31;19.38;;;12.52;;
59127;SDS011;44912;52.754;5.994;2023-02-28T05:07:00;19.67;;;12.95;;
59127;SDS011;44912;52.754;5.994;2023-02-28T05:09:28;23.90;;;13.43;;
59127;SDS011;44912;52.754;5.994;2023-02-28T05:11:53;21.17;;;13.95;;
59127;SDS011;44912;52.754;5.994;2023-02-28T05:14:19;21.20;;;13.27;;
59127;SDS011;44912;52.754;5.994;2023-02-28T05:16:45;22.75;;;13.65;;
59127;SDS011;44912;52.754;5.994;2023-02-28T05:19:10;19.50;;;12.65;;
59127;SDS011;44912;52.754;5.994;2023-02-28T05:21:37;20.55;;;13.80;;
59127;SDS011;44912;52.754;5.994;2023-02-28T05:24:13;20.10;;;13.27;;
59127;SDS011;44912;52.754;5.994;2023-02-28T05:26:40;19.83;;;12.70;;
59127;SDS011;44912;52.754;5.994;2023-02-28T05:29:06;24.08;;;13.45;;
59127;SDS011;44912;52.754;5.994;2023-02-28T05:31:32;21.70;;;13.30;;
59127;SDS011;44912;52.754;5.994;2023-02-28T05:33:59;19.27;;;12.93;;
59127;SDS011;44912;52.754;5.994;2023-02-28T05:36:25;20.40;;;13.07;;
59127;SDS011;44912;52.754;5.994;2023-02-28T05:38:51;23.17;;;12.82;;
59127;SDS011;44912;52.754;5.994;2023-02-28T05:41:17;22.00;;;13.65;;
59127;SDS011;44912;52.754;5.994;2023-02-28T05:43:47;20.58;;;13.55;;
59127;SDS011;44912;52.754;5.994;2023-02-28T05:46:13;25.38;;;14.50;;
59127;SDS011;44912;52.754;5.994;2023-02-28T05:48:40;24.92;;;14.30;;
59127;SDS011;44912;52.754;5.994;2023-02-28T05:51:06;20.27;;;13.80;;
59127;SDS011;44912;52.754;5.994;2023-02-28T05:53:33;22.08;;;14.35;;
59127;SDS011;44912;52.754;5.994;2023-02-28T05:55:59;23.60;;;14.27;;
59127;SDS011;44912;52.754;5.994;2023-02-28T05:58:25;22.40;;;13.40;;
59127;SDS011;44912;52.754;5.994;2023-02-28T06:00:54;24.27;;;15.32;;
59127;SDS011;44912;52.754;5.994;2023-02-28T06:03:19;23.05;;;14.20;;
59127;SDS011;44912;52.754;5.994;2023-02-28T06:05:45;21.17;;;14.32;;
59127;SDS011;44912;52.754;5.994;2023-02-28T06:08:10;22.85;;;14.20;;
59127;SDS011;44912;52.754;5.994;2023-02-28T06:10:36;20.27;;;13.98;;
59127;SDS011;44912;52.754;5.994;2023-02-28T06:13:02;21.67;;;13.57;;
59127;SDS011;44912;52.754;5.994;2023-02-28T06:15:29;22.38;;;14.43;;
59127;SDS011;44912;52.754;5.994;2023-02-28T06:17:55;19.45;;;12.63;;
59127;SDS011;44912;52.754;5.994;2023-02-28T06:20:24;19.77;;;12.05;;
59127;SDS011;44912;52.754;5.994;2023-02-28T06:22:54;19.83;;;12.27;;
59127;SDS011;44912;52.754;5.994;2023-02-28T06:25:21;21.63;;;13.02;;
59127;SDS011;44912;52.754;5.994;2023-02-28T06:27:47;19.63;;;12.15;;
59127;SDS011;44912;52.754;5.994;2023-02-28T06:30:13;18.23;;;11.32;;
59127;SDS011;44912;52.754;5.994;2023-02-28T06:32:39;17.50;;;11.55;;
59127;SDS011;44912;52.754;5.994;2023-02-28T06:35:04;17.35;;;11.45;;
59127;SDS011;44912;52.754;5.994;2023-02-28T06:37:30;17.67;;;11.88;;
59127;SDS011;44912;52.754;5.994;2023-02-28T06:39:56;16.88;;;10.88;;
59127;SDS011;44912;52.754;5.994;2023-02-28T06:42:22;16.63;;;11.02;;
59127;SDS011;44912;52.754;5.994;2023-02-28T06:44:54;18.33;;;10.70;;
59127;SDS011;44912;52.754;5.994;2023-02-28T06:47:20;15.18;;;10.07;;
59127;SDS011;44912;52.754;5.994;2023-02-28T06:49:46;18.25;;;10.82;;
59127;SDS011;44912;52.754;5.994;2023-02-28T06:52:12;18.48;;;10.63;;
59127;SDS011;44912;52.754;5.994;2023-02-28T06:54:38;15.38;;;10.30;;
59127;SDS011;44912;52.754;5.994;2023-02-28T06:57:04;13.88;;;10.13;;
59127;SDS011;44912;52.754;5.994;2023-02-28T06:59:30;14.90;;;9.77;;
59127;SDS011;44912;52.754;5.994;2023-02-28T07:01:55;17.48;;;10.30;;
59127;SDS011;44912;52.754;5.994;2023-02-28T07:04:21;22.77;;;13.93;;
59127;SDS011;44912;52.754;5.994;2023-02-28T07:06:47;25.60;;;14.77;;
59127;SDS011;44912;52.754;5.994;2023-02-28T07:09:12;28.48;;;16.60;;
59127;SDS011;44912;52.754;5.994;2023-02-28T07:11:39;26.23;;;15.68;;
59127;SDS011;44912;52.754;5.994;2023-02-28T07:14:05;20.75;;;13.80;;
59127;SDS011;44912;52.754;5.994;2023-02-28T07:16:31;17.98;;;11.40;;
59127;SDS011;44912;52.754;5.994;2023-02-28T07:18:56;18.02;;;11.35;;
59127;SDS011;44912;52.754;5.994;2023-02-28T07:21:22;17.20;;;11.30;;
59127;SDS011;44912;52.754;5.994;2023-02-28T07:23:48;15.77;;;9.18;;
59127;SDS011;44912;52.754;5.994;2023-02-28T07:26:15;14.82;;;8.90;;
59127;SDS011;44912;52.754;5.994;2023-02-28T07:28:42;13.85;;;9.25;;
59127;SDS011;44912;52.754;5.994;2023-02-28T07:31:08;17.05;;;9.40;;
59127;SDS011;44912;52.754;5.994;2023-02-28T07:33:34;14.65;;;9.48;;
59127;SDS011;44912;52.754;5.994;2023-02-28T07:36:01;14.10;;;8.80;;
59127;SDS011;44912;52.754;5.994;2023-02-28T07:38:36;13.05;;;9.52;;
59127;SDS011;44912;52.754;5.994;2023-02-28T07:41:02;12.85;;;8.93;;
59127;SDS011;44912;52.754;5.994;2023-02-28T07:43:31;14.77;;;9.10;;
59127;SDS011;44912;52.754;5.994;2023-02-28T07:46:04;15.05;;;8.93;;
59127;SDS011;44912;52.754;5.994;2023-02-28T07:48:35;12.85;;;9.10;;
59127;SDS011;44912;52.754;5.994;2023-02-28T07:51:01;12.95;;;8.75;;
59127;SDS011;44912;52.754;5.994;2023-02-28T07:53:27;12.27;;;8.57;;
59127;SDS011;44912;52.754;5.994;2023-02-28T07:55:54;15.85;;;9.45;;
59127;SDS011;44912;52.754;5.994;2023-02-28T07:58:24;14.32;;;9.50;;
59127;SDS011;44912;52.754;5.994;2023-02-28T08:00:51;13.63;;;8.57;;
59127;SDS011;44912;52.754;5.994;2023-02-28T08:03:20;14.02;;;9.25;;
59127;SDS011;44912;52.754;5.994;2023-02-28T08:05:46;14.93;;;9.70;;
59127;SDS011;44912;52.754;5.994;2023-02-28T08:08:13;14.18;;;9.85;;
59127;SDS011;44912;52.754;5.994;2023-02-28T08:10:39;17.75;;;10.93;;
59127;SDS011;44912;52.754;5.994;2023-02-28T08:13:05;12.68;;;9.68;;
59127;SDS011;44912;52.754;5.994;2023-02-28T08:15:30;17.80;;;10.25;;
59127;SDS011;44912;52.754;5.994;2023-02-28T08:17:56;12.88;;;9.32;;
59127;SDS011;44912;52.754;5.994;2023-02-28T08:20:22;14.73;;;10.40;;
59127;SDS011;44912;52.754;5.994;2023-02-28T08:22:48;14.23;;;10.18;;
59127;SDS011;44912;52.754;5.994;2023-02-28T08:25:14;12.57;;;10.02;;
59127;SDS011;44912;52.754;5.994;2023-02-28T08:27:39;16.60;;;11.25;;
59127;SDS011;44912;52.754;5.994;2023-02-28T08:30:05;16.45;;;10.52;;
59127;SDS011;44912;52.754;5.994;2023-02-28T08:32:32;13.45;;;9.77;;
59127;SDS011;44912;52.754;5.994;2023-02-28T08:34:58;16.35;;;10.82;;
59127;SDS011;44912;52.754;5.994;2023-02-28T08:37:24;14.70;;;10.02;;
59127;SDS011;44912;52.754;5.994;2023-02-28T08:39:49;14.57;;;10.57;;
59127;SDS011;44912;52.754;5.994;2023-02-28T08:42:15;14.48;;;10.32;;
59127;SDS011;44912;52.754;5.994;2023-02-28T08:44:41;14.32;;;9.82;;
59127;SDS011;44912;52.754;5.994;2023-02-28T08:47:06;15.10;;;9.90;;
59127;SDS011;44912;52.754;5.994;2023-02-28T08:49:32;14.82;;;10.45;;
59127;SDS011;44912;52.754;5.994;2023-02-28T08:51:57;13.63;;;9.55;;
59127;SDS011;44912;52.754;5.994;2023-02-28T08:54:23;14.65;;;9.63;;
59127;SDS011;44912;52.754;5.994;2023-02-28T08:56:49;13.35;;;9.38;;
59127;SDS011;44912;52.754;5.994;2023-02-28T08:59:15;12.25;;;9.18;;
59127;SDS011;44912;52.754;5.994;2023-02-28T09:01:41;14.70;;;9.65;;
59127;SDS011;44912;52.754;5.994;2023-02-28T09:04:08;13.20;;;9.50;;
59127;SDS011;44912;52.754;5.994;2023-02-28T09:06:35;14.32;;;10.35;;
59127;SDS011;44912;52.754;5.994;2023-02-28T09:09:01;13.13;;;9.73;;
59127;SDS011;44912;52.754;5.994;2023-02-28T09:11:28;14.35;;;10.40;;
59127;SDS011;44912;52.754;5.994;2023-02-28T09:13:53;13.10;;;9.50;;
59127;SDS011;44912;52.754;5.994;2023-02-28T09:16:20;15.93;;;10.23;;
59127;SDS011;44912;52.754;5.994;2023-02-28T09:18:46;13.43;;;10.48;;
59127;SDS011;44912;52.754;5.994;2023-02-28T09:21:14;15.55;;;9.80;;
59127;SDS011;44912;52.754;5.994;2023-02-28T09:23:42;15.48;;;10.63;;
59127;SDS011;44912;52.754;5.994;2023-02-28T09:26:25;14.13;;;9.68;;
59127;SDS011;44912;52.754;5.994;2023-02-28T09:28:52;14.60;;;10.55;;
59127;SDS011;44912;52.754;5.994;2023-02-28T09:31:23;12.80;;;9.15;;
59127;SDS011;44912;52.754;5.994;2023-02-28T09:33:51;15.63;;;9.85;;
59127;SDS011;44912;52.754;5.994;2023-02-28T09:36:18;12.68;;;8.38;;
59127;SDS011;44912;52.754;5.994;2023-02-28T09:38:44;13.65;;;10.10;;
59127;SDS011;44912;52.754;5.994;2023-02-28T09:41:13;15.40;;;9.60;;
59127;SDS011;44912;52.754;5.994;2023-02-28T09:43:47;19.73;;;11.98;;
59127;SDS011;44912;52.754;5.994;2023-02-28T09:49:06;19.52;;;11.40;;
59127;SDS011;44912;52.754;5.994;2023-02-28T09:51:52;14.23;;;9.50;;
59127;SDS011;44912;52.754;5.994;2023-02-28T09:54:24;26.63;;;15.65;;
59127;SDS011;44912;52.754;5.994;2023-02-28T09:59:39;36.90;;;18.65;;
59127;SDS011;44912;52.754;5.994;2023-02-28T10:05:30;36.42;;;20.10;;
59127;SDS011;44912;52.754;5.994;2023-02-28T10:08:03;12.90;;;6.65;;
59127;SDS011;44912;52.754;5.994;2023-02-28T10:10:43;9.50;;;4.85;;
59127;SDS011;44912;52.754;5.994;2023-02-28T10:13:13;8.77;;;4.70;;
59127;SDS011;44912;52.754;5.994;2023-02-28T10:15:53;10.23;;;5.10;;
59127;SDS011;44912;52.754;5.994;2023-02-28T10:18:27;10.55;;;5.90;;
59127;SDS011;44912;52.754;5.994;2023-02-28T10:21:00;9.68;;;5.05;;
59127;SDS011;44912;52.754;5.994;2023-02-28T10:23:31;11.68;;;5.40;;
59127;SDS011;44912;52.754;5.994;2023-02-28T10:28:30;12.27;;;5.72;;
59127;SDS011;44912;52.754;5.994;2023-02-28T10:30:56;10.35;;;4.97;;
59127;SDS011;44912;52.754;5.994;2023-02-28T10:33:30;9.82;;;4.95;;
59127;SDS011;44912;52.754;5.994;2023-02-28T10:35:59;11.88;;;4.72;;
59127;SDS011;44912;52.754;5.994;2023-02-28T10:38:27;9.27;;;4.65;;
59127;SDS011;44912;52.754;5.994;2023-02-28T10:41:07;10.32;;;5.15;;
59127;SDS011;44912;52.754;5.994;2023-02-28T10:43:33;11.18;;;5.47;;
59127;SDS011;44912;52.754;5.994;2023-02-28T10:48:36;16.92;;;8.60;;
59127;SDS011;44912;52.754;5.994;2023-02-28T10:51:09;14.20;;;8.07;;
59127;SDS011;44912;52.754;5.994;2023-02-28T10:53:37;12.63;;;6.88;;
59127;SDS011;44912;52.754;5.994;2023-02-28T10:58:54;16.92;;;7.25;;
59127;SDS011;44912;52.754;5.994;2023-02-28T11:01:39;11.57;;;5.97;;
59127;SDS011;44912;52.754;5.994;2023-02-28T11:06:44;10.65;;;5.28;;
59127;SDS011;44912;52.754;5.994;2023-02-28T11:11:51;11.20;;;5.20;;
59127;SDS011;44912;52.754;5.994;2023-02-28T11:14:25;9.93;;;4.45;;
59127;SDS011;44912;52.754;5.994;2023-02-28T11:16:53;9.98;;;4.82;;
59127;SDS011;44912;52.754;5.994;2023-02-28T11:19:20;8.65;;;3.78;;
59127;SDS011;44912;52.754;5.994;2023-02-28T11:22:03;7.80;;;3.45;;
59127;SDS011;44912;52.754;5.994;2023-02-28T11:24:31;9.88;;;4.20;;
59127;SDS011;44912;52.754;5.994;2023-02-28T11:27:02;8.32;;;4.03;;
59127;SDS011;44912;52.754;5.994;2023-02-28T11:29:31;8.60;;;3.92;;
59127;SDS011;44912;52.754;5.994;2023-02-28T11:32:05;7.60;;;3.10;;
59127;SDS011;44912;52.754;5.994;2023-02-28T11:34:37;6.57;;;2.90;;
59127;SDS011;44912;52.754;5.994;2023-02-28T11:37:03;7.07;;;2.92;;
59127;SDS011;44912;52.754;5.994;2023-02-28T11:39:34;6.47;;;3.10;;
59127;SDS011;44912;52.754;5.994;2023-02-28T11:42:20;6.55;;;3.25;;
59127;SDS011;44912;52.754;5.994;2023-02-28T11:45:11;5.88;;;3.05;;
59127;SDS011;44912;52.754;5.994;2023-02-28T11:48:00;7.32;;;2.85;;
59127;SDS011;44912;52.754;5.994;2023-02-28T11:56:37;6.47;;;3.10;;
59127;SDS011;44912;52.754;5.994;2023-02-28T12:07:16;7.22;;;3.13;;
59127;SDS011;44912;52.754;5.994;2023-02-28T12:10:02;7.30;;;3.20;;
59127;SDS011;44912;52.754;5.994;2023-02-28T12:26:23;5.20;;;2.47;;
59127;SDS011;44912;52.754;5.994;2023-02-28T12:29:57;5.72;;;3.03;;
59127;SDS011;44912;52.754;5.994;2023-02-28T12:34:55;6.35;;;3.20;;
59127;SDS011;44912;52.754;5.994;2023-02-28T12:38:12;6.15;;;2.90;;
59127;SDS011;44912;52.754;5.994;2023-02-28T12:40:21;5.18;;;2.53;;
59127;SDS011;44912;52.754;5.994;2023-02-28T12:42:52;6.72;;;2.85;;
59127;SDS011;44912;52.754;5.994;2023-02-28T12:45:31;5.70;;;2.35;;
59127;SDS011;44912;52.754;5.994;2023-02-28T12:48:21;4.00;;;2.00;;
59127;SDS011;44912;52.754;5.994;2023-02-28T12:50:52;4.10;;;2.10;;
59127;SDS011;44912;52.754;5.994;2023-02-28T12:53:31;4.07;;;1.98;;
59127;SDS011;44912;52.754;5.994;2023-02-28T12:59:21;5.47;;;2.20;;
59127;SDS011;44912;52.754;5.994;2023-02-28T13:02:00;4.03;;;2.03;;
59127;SDS011;44912;52.754;5.994;2023-02-28T13:04:31;4.25;;;1.90;;
59127;SDS011;44912;52.754;5.994;2023-02-28T13:09:57;4.50;;;2.15;;
59127;SDS011;44912;52.754;5.994;2023-02-28T13:12:25;4.68;;;2.00;;
59127;SDS011;44912;52.754;5.994;2023-02-28T13:15:00;4.05;;;1.90;;
59127;SDS011;44912;52.754;5.994;2023-02-28T13:17:30;5.10;;;2.08;;
59127;SDS011;44912;52.754;5.994;2023-02-28T13:19:56;4.30;;;2.35;;
59127;SDS011;44912;52.754;5.994;2023-02-28T13:22:43;5.22;;;2.22;;
59127;SDS011;44912;52.754;5.994;2023-02-28T13:27:48;4.85;;;2.10;;
59127;SDS011;44912;52.754;5.994;2023-02-28T13:33:26;5.95;;;2.50;;
59127;SDS011;44912;52.754;5.994;2023-02-28T13:36:36;4.63;;;2.15;;
59127;SDS011;44912;52.754;5.994;2023-02-28T13:38:46;5.10;;;2.40;;
59127;SDS011;44912;52.754;5.994;2023-02-28T14:00:17;5.03;;;2.30;;
59127;SDS011;44912;52.754;5.994;2023-02-28T14:05:39;5.55;;;2.72;;
59127;SDS011;44912;52.754;5.994;2023-02-28T14:08:07;5.40;;;2.13;;
59127;SDS011;44912;52.754;5.994;2023-02-28T14:10:46;4.20;;;2.20;;
59127;SDS011;44912;52.754;5.994;2023-02-28T14:16:21;4.93;;;2.00;;
59127;SDS011;44912;52.754;5.994;2023-02-28T14:19:32;3.78;;;2.15;;
59127;SDS011;44912;52.754;5.994;2023-02-28T14:27:08;4.95;;;2.55;;
59127;SDS011;44912;52.754;5.994;2023-02-28T14:29:43;4.05;;;2.28;;
59127;SDS011;44912;52.754;5.994;2023-02-28T14:35:03;5.82;;;2.70;;
59127;SDS011;44912;52.754;5.994;2023-02-28T14:37:33;5.03;;;2.40;;
59127;SDS011;44912;52.754;5.994;2023-02-28T14:40:02;4.63;;;2.38;;
59127;SDS011;44912;52.754;5.994;2023-02-28T14:42:33;5.05;;;2.45;;
59127;SDS011;44912;52.754;5.994;2023-02-28T14:45:00;5.15;;;2.55;;
59127;SDS011;44912;52.754;5.994;2023-02-28T14:47:28;4.22;;;2.40;;
59127;SDS011;44912;52.754;5.994;2023-02-28T14:49:58;5.95;;;2.65;;
59127;SDS011;44912;52.754;5.994;2023-02-28T14:52:29;7.70;;;3.60;;
59127;SDS011;44912;52.754;5.994;2023-02-28T14:54:58;6.25;;;3.22;;
59127;SDS011;44912;52.754;5.994;2023-02-28T14:57:30;5.28;;;2.70;;
59127;SDS011;44912;52.754;5.994;2023-02-28T15:00:02;8.00;;;2.95;;
59127;SDS011;44912;52.754;5.994;2023-02-28T15:02:41;6.03;;;3.30;;
59127;SDS011;44912;52.754;5.994;2023-02-28T15:07:41;8.15;;;3.47;;
59127;SDS011;44912;52.754;5.994;2023-02-28T15:10:09;9.45;;;3.50;;
59127;SDS011;44912;52.754;5.994;2023-02-28T15:12:41;5.85;;;3.45;;
59127;SDS011;44912;52.754;5.994;2023-02-28T15:15:15;6.25;;;3.40;;
59127;SDS011;44912;52.754;5.994;2023-02-28T15:17:43;8.52;;;3.72;;
59127;SDS011;44912;52.754;5.994;2023-02-28T15:20:11;6.88;;;4.00;;
59127;SDS011;44912;52.754;5.994;2023-02-28T15:22:39;7.20;;;3.88;;
59127;SDS011;44912;52.754;5.994;2023-02-28T15:25:05;6.35;;;3.50;;
59127;SDS011;44912;52.754;5.994;2023-02-28T15:27:33;6.75;;;3.45;;
59127;SDS011;44912;52.754;5.994;2023-02-28T15:30:08;6.55;;;3.40;;
59127;SDS011;44912;52.754;5.994;2023-02-28T15:32:41;7.03;;;3.53;;
59127;SDS011;44912;52.754;5.994;2023-02-28T15:35:18;7.80;;;3.70;;
59127;SDS011;44912;52.754;5.994;2023-02-28T15:42:58;8.23;;;3.95;;
59127;SDS011;44912;52.754;5.994;2023-02-28T15:45:28;9.23;;;4.00;;
59127;SDS011;44912;52.754;5.994;2023-02-28T15:47:59;8.27;;;3.60;;
59127;SDS011;44912;52.754;5.994;2023-02-28T15:50:27;8.68;;;4.15;;
59127;SDS011;44912;52.754;5.994;2023-02-28T15:52:53;9.18;;;4.05;;
59127;SDS011;44912;52.754;5.994;2023-02-28T15:55:28;7.18;;;3.97;;
59127;SDS011;44912;52.754;5.994;2023-02-28T15:57:55;7.10;;;3.92;;
59127;SDS011;44912;52.754;5.994;2023-02-28T16:00:25;7.47;;;3.72;;
59127;SDS011;44912;52.754;5.994;2023-02-28T16:02:57;7.95;;;4.05;;
59127;SDS011;44912;52.754;5.994;2023-02-28T16:05:25;8.43;;;4.10;;
59127;SDS011;44912;52.754;5.994;2023-02-28T16:07:58;7.32;;;3.85;;
59127;SDS011;44912;52.754;5.994;2023-02-28T16:10:26;7.28;;;3.42;;
59127;SDS011;44912;52.754;5.994;2023-02-28T16:12:53;6.90;;;3.65;;
59127;SDS011;44912;52.754;5.994;2023-02-28T16:15:22;7.35;;;3.35;;
59127;SDS011;44912;52.754;5.994;2023-02-28T16:17:51;6.68;;;3.53;;
59127;SDS011;44912;52.754;5.994;2023-02-28T16:22:44;7.70;;;3.92;;
59127;SDS011;44912;52.754;5.994;2023-02-28T16:25:11;8.00;;;3.70;;
59127;SDS011;44912;52.754;5.994;2023-02-28T16:27:41;7.13;;;4.07;;
59127;SDS011;44912;52.754;5.994;2023-02-28T16:30:10;8.25;;;4.60;;
59127;SDS011;44912;52.754;5.994;2023-02-28T16:32:43;7.70;;;4.18;;
59127;SDS011;44912;52.754;5.994;2023-02-28T16:35:09;10.55;;;4.05;;
59127;SDS011;44912;52.754;5.994;2023-02-28T16:37:36;9.82;;;4.90;;
59127;SDS011;44912;52.754;5.994;2023-02-28T16:40:02;7.00;;;4.20;;
59127;SDS011;44912;52.754;5.994;2023-02-28T16:42:28;10.95;;;5.13;;
59127;SDS011;44912;52.754;5.994;2023-02-28T16:44:55;7.50;;;4.13;;
59127;SDS011;44912;52.754;5.994;2023-02-28T16:47:22;7.32;;;4.10;;
59127;SDS011;44912;52.754;5.994;2023-02-28T16:49:48;10.77;;;4.50;;
59127;SDS011;44912;52.754;5.994;2023-02-28T16:52:14;7.70;;;4.43;;
59127;SDS011;44912;52.754;5.994;2023-02-28T16:54:40;8.90;;;4.00;;
59127;SDS011;44912;52.754;5.994;2023-02-28T16:57:06;6.65;;;3.88;;
59127;SDS011;44912;52.754;5.994;2023-02-28T16:59:45;8.13;;;4.35;;
59127;SDS011;44912;52.754;5.994;2023-02-28T17:02:11;7.50;;;4.53;;
59127;SDS011;44912;52.754;5.994;2023-02-28T17:04:39;8.98;;;4.40;;